Time;durP1;ratioP1;P1;durP2;ratioP2;P2;SDS_P1;SDS_P2;PMS_P1;PMS_P2;Temp;Humidity;BMP_temperature;BMP_pressure;BME280_temperature;BME280_humidity;BME280_pressure;Samples;Min_cycle;Max_cycle;Signal;HPM_P1;HPM_P2
2021/10/06 00:02:03;;;;;;;12.33;9.20;;;12.10;99.90;;;;;;5054215;28;20276;-49
2021/10/06 00:04:30;;;;;;;11.50;9.37;;;12.10;99.90;;;;;;5063647;28;20678;-50
2021/10/06 00:06:56;;;;;;;11.87;8.83;;;12.10;99.90;;;;;;5060420;28;20194;-49
2021/10/06 00:09:23;;;;;;;10.63;9.13;;;12.10;99.90;;;;;;5063874;28;20229;-49
2021/10/06 00:11:50;;;;;;;11.00;8.73;;;12.10;99.90;;;;;;5048557;28;20222;-49
2021/10/06 00:14:17;;;;;;;10.30;8.70;;;12.10;99.90;;;;;;5066643;28;20206;-48
2021/10/06 00:16:44;;;;;;;9.50;8.23;;;12.10;99.90;;;;;;5053306;28;20206;-51
2021/10/06 00:19:11;;;;;;;9.67;8.03;;;12.10;99.90;;;;;;5063146;28;20198;-47
2021/10/06 00:21:38;;;;;;;9.50;8.17;;;12.20;99.90;;;;;;5062351;28;20202;-49
2021/10/06 00:24:05;;;;;;;9.50;7.80;;;12.20;99.90;;;;;;5063005;28;20198;-50
2021/10/06 00:26:32;;;;;;;8.43;7.53;;;12.10;99.90;;;;;;5063578;28;20203;-51
2021/10/06 00:28:59;;;;;;;8.60;7.80;;;12.10;99.90;;;;;;5050718;28;20202;-51
2021/10/06 00:31:25;;;;;;;8.10;7.27;;;12.10;99.90;;;;;;5055248;28;20268;-45
2021/10/06 00:33:52;;;;;;;9.47;8.30;;;12.10;99.90;;;;;;5059347;28;20202;-46
2021/10/06 00:36:20;;;;;;;10.63;8.13;;;12.20;99.90;;;;;;5063892;28;20210;-48
2021/10/06 00:38:47;;;;;;;8.20;7.50;;;12.20;99.90;;;;;;5060919;28;20202;-51
2021/10/06 00:41:14;;;;;;;9.53;7.47;;;12.20;99.90;;;;;;5064060;28;20206;-52
2021/10/06 00:43:40;;;;;;;9.10;8.10;;;12.20;99.90;;;;;;5055586;28;20230;-50
2021/10/06 00:46:07;;;;;;;8.37;7.10;;;12.20;99.90;;;;;;5054506;28;20191;-50
2021/10/06 00:48:33;;;;;;;8.07;7.30;;;12.20;99.90;;;;;;5062108;28;20663;-51
2021/10/06 00:51:00;;;;;;;11.77;8.27;;;12.20;99.90;;;;;;5060166;28;20191;-46
2021/10/06 00:53:28;;;;;;;10.37;7.60;;;12.20;99.90;;;;;;5063276;28;20222;-46
2021/10/06 00:55:56;;;;;;;9.67;7.37;;;12.20;99.90;;;;;;5059302;28;20197;-46
2021/10/06 00:58:23;;;;;;;9.63;7.93;;;12.20;99.90;;;;;;5063044;28;20209;-46
2021/10/06 01:00:49;;;;;;;8.50;7.60;;;12.20;99.90;;;;;;5042686;28;20209;-49
2021/10/06 01:03:20;;;;;;;10.93;8.03;;;12.20;99.90;;;;;;5062307;28;20218;-49
2021/10/06 01:05:47;;;;;;;8.97;8.07;;;12.20;99.90;;;;;;5059402;28;20205;-56
2021/10/06 01:08:13;;;;;;;11.33;8.27;;;12.30;99.90;;;;;;5063474;28;20210;-50
2021/10/06 01:10:42;;;;;;;8.67;7.87;;;12.30;99.90;;;;;;5060660;28;20198;-47
2021/10/06 01:13:08;;;;;;;8.30;7.50;;;12.30;99.90;;;;;;5061588;28;20230;-47
2021/10/06 01:15:35;;;;;;;7.87;7.17;;;12.30;99.90;;;;;;5055501;28;20207;-49
2021/10/06 01:18:02;;;;;;;8.97;8.07;;;12.40;99.90;;;;;;5054757;28;20202;-51
2021/10/06 01:20:29;;;;;;;8.13;7.33;;;12.40;99.90;;;;;;5062929;28;20198;-50
2021/10/06 01:22:57;;;;;;;8.27;7.37;;;12.40;99.90;;;;;;5059292;28;20226;-47
2021/10/06 01:25:23;;;;;;;8.70;7.37;;;12.40;99.90;;;;;;5067077;28;20199;-48
2021/10/06 01:27:50;;;;;;;8.60;7.70;;;12.40;99.90;;;;;;5063149;28;20863;-47
2021/10/06 01:30:16;;;;;;;8.60;7.70;;;12.40;99.90;;;;;;5057954;28;20214;-51
2021/10/06 01:32:45;;;;;;;9.53;7.50;;;12.40;99.90;;;;;;5055430;28;20218;-56
2021/10/06 01:35:15;;;;;;;11.33;7.90;;;12.40;99.90;;;;;;5066206;28;20225;-49
2021/10/06 01:37:42;;;;;;;7.87;6.83;;;12.40;99.90;;;;;;5064292;28;20210;-49
2021/10/06 01:40:13;;;;;;;8.27;7.10;;;12.40;99.90;;;;;;5066314;28;20218;-48
2021/10/06 01:42:41;;;;;;;10.30;7.40;;;12.40;99.90;;;;;;5064683;28;20703;-47
2021/10/06 01:45:15;;;;;;;8.67;6.93;;;12.40;99.90;;;;;;5065389;28;20759;-51
2021/10/06 01:47:42;;;;;;;7.83;6.43;;;12.40;99.90;;;;;;5055044;28;20221;-49
2021/10/06 01:50:09;;;;;;;7.80;7.00;;;12.40;99.90;;;;;;5063693;28;20308;-50
2021/10/06 01:52:36;;;;;;;7.70;6.90;;;12.40;99.90;;;;;;5064508;28;20246;-51
2021/10/06 01:55:03;;;;;;;7.70;6.93;;;12.40;99.90;;;;;;5064068;28;20198;-46
2021/10/06 01:57:31;;;;;;;9.43;7.13;;;12.40;99.90;;;;;;5066119;28;20264;-51
2021/10/06 01:59:57;;;;;;;8.40;7.30;;;12.30;99.90;;;;;;5064817;28;20179;-50
2021/10/06 02:02:24;;;;;;;9.90;6.90;;;12.30;99.90;;;;;;5055225;28;20219;-48
2021/10/06 02:04:50;;;;;;;8.50;6.93;;;12.30;99.90;;;;;;5044500;28;20194;-48
2021/10/06 02:07:17;;;;;;;9.93;7.23;;;12.30;99.90;;;;;;5066295;28;20675;-45
2021/10/06 02:09:43;;;;;;;10.47;7.67;;;12.30;99.90;;;;;;5063371;28;20206;-54
2021/10/06 02:12:10;;;;;;;9.73;7.20;;;12.30;99.90;;;;;;5064978;28;20226;-49
2021/10/06 02:14:38;;;;;;;12.03;7.37;;;12.30;99.90;;;;;;5064284;28;20205;-46
2021/10/06 02:17:04;;;;;;;8.43;6.87;;;12.30;99.90;;;;;;5064320;28;20286;-48
2021/10/06 02:19:31;;;;;;;8.93;7.43;;;12.20;99.90;;;;;;5049010;28;20210;-49
2021/10/06 02:21:58;;;;;;;9.10;7.33;;;12.20;99.90;;;;;;5063198;28;20221;-48
2021/10/06 02:24:25;;;;;;;10.00;7.17;;;12.20;99.90;;;;;;5066842;28;20285;-47
2021/10/06 02:26:52;;;;;;;13.07;7.23;;;12.20;99.90;;;;;;5062790;28;20187;-48
2021/10/06 02:29:18;;;;;;;10.23;7.33;;;12.20;99.90;;;;;;5070896;28;20199;-46
2021/10/06 02:31:46;;;;;;;7.47;6.77;;;12.10;99.90;;;;;;5061910;28;20222;-55
2021/10/06 02:34:13;;;;;;;8.43;7.60;;;12.10;99.90;;;;;;5052705;28;20202;-48
2021/10/06 02:36:40;;;;;;;8.93;7.63;;;12.00;99.90;;;;;;5063009;28;20265;-50
2021/10/06 02:39:06;;;;;;;9.20;7.50;;;12.00;99.90;;;;;;5064192;28;20206;-46
2021/10/06 02:41:33;;;;;;;9.43;7.70;;;12.00;99.90;;;;;;5065138;28;20218;-51
2021/10/06 02:44:00;;;;;;;8.23;7.43;;;11.90;99.90;;;;;;5063919;28;20199;-47
2021/10/06 02:46:27;;;;;;;8.10;7.30;;;11.90;99.90;;;;;;5066988;28;20198;-50
2021/10/06 02:48:54;;;;;;;8.30;7.10;;;12.00;99.90;;;;;;5050279;28;20198;-52
2021/10/06 02:51:21;;;;;;;8.50;7.70;;;12.00;99.90;;;;;;5066176;28;20209;-47
2021/10/06 02:53:48;;;;;;;9.07;8.07;;;12.00;99.90;;;;;;5059137;28;20261;-51
2021/10/06 02:56:15;;;;;;;10.03;7.80;;;12.00;99.90;;;;;;5066634;28;20206;-52
2021/10/06 02:58:42;;;;;;;10.20;7.73;;;12.00;99.90;;;;;;5064065;28;20279;-51
2021/10/06 03:01:09;;;;;;;8.63;7.33;;;12.00;99.90;;;;;;5064550;28;20722;-47
2021/10/06 03:03:35;;;;;;;11.20;7.43;;;12.00;99.90;;;;;;5063094;28;20215;-48
2021/10/06 03:06:03;;;;;;;8.53;7.50;;;12.00;99.90;;;;;;5049696;28;20206;-46
2021/10/06 03:08:30;;;;;;;8.97;7.17;;;12.10;99.90;;;;;;5064492;28;20190;-53
2021/10/06 03:10:57;;;;;;;9.23;7.40;;;12.10;99.90;;;;;;5061405;28;20909;-46
2021/10/06 03:13:23;;;;;;;10.93;7.20;;;12.10;99.90;;;;;;5064006;28;20226;-48
2021/10/06 03:15:50;;;;;;;9.43;7.80;;;12.10;99.90;;;;;;5060656;28;20199;-50
2021/10/06 03:18:17;;;;;;;9.33;7.37;;;12.10;99.90;;;;;;5065054;28;20728;-45
2021/10/06 03:20:44;;;;;;;9.73;7.47;;;12.20;99.90;;;;;;5048702;28;20209;-54
2021/10/06 03:23:12;;;;;;;10.43;7.03;;;12.20;99.90;;;;;;5063804;28;20226;-48
2021/10/06 03:25:38;;;;;;;11.33;7.70;;;12.20;99.90;;;;;;5062520;28;20213;-56
2021/10/06 03:28:05;;;;;;;8.40;7.47;;;12.20;99.90;;;;;;5062949;28;20198;-45
2021/10/06 03:30:33;;;;;;;8.83;7.23;;;12.20;99.90;;;;;;5063658;28;20209;-53
2021/10/06 03:32:59;;;;;;;8.67;7.40;;;12.20;99.90;;;;;;5061195;28;20248;-51
2021/10/06 03:35:26;;;;;;;10.83;7.27;;;12.20;99.90;;;;;;5052227;28;20667;-50
2021/10/06 03:37:53;;;;;;;9.07;6.43;;;12.20;99.90;;;;;;5060023;28;20183;-46
2021/10/06 03:40:21;;;;;;;7.80;7.00;;;12.30;99.90;;;;;;5064400;28;20202;-47
2021/10/06 03:42:47;;;;;;;11.03;7.70;;;12.30;99.90;;;;;;5061716;28;20267;-53
2021/10/06 03:45:15;;;;;;;11.27;7.80;;;12.30;99.90;;;;;;5064355;28;20217;-46
2021/10/06 03:47:42;;;;;;;8.83;7.63;;;12.30;99.90;;;;;;5061705;28;20285;-56
2021/10/06 03:50:11;;;;;;;11.63;8.57;;;12.30;99.90;;;;;;5051608;28;20210;-47
2021/10/06 03:52:38;;;;;;;12.30;8.67;;;12.30;99.90;;;;;;5062919;28;20222;-48
2021/10/06 03:55:06;;;;;;;8.43;7.67;;;12.20;99.90;;;;;;5063236;28;20197;-47
2021/10/06 03:57:35;;;;;;;10.37;7.27;;;12.20;99.90;;;;;;5063128;28;20202;-53
2021/10/06 04:00:01;;;;;;;12.37;7.13;;;12.20;99.90;;;;;;5061245;28;20206;-46
2021/10/06 04:02:31;;;;;;;8.83;7.93;;;12.20;99.90;;;;;;5062846;28;20219;-52
2021/10/06 04:04:57;;;;;;;14.10;7.60;;;12.20;99.90;;;;;;5060692;28;20499;-45
2021/10/06 04:07:24;;;;;;;10.33;6.90;;;12.20;99.90;;;;;;5051305;28;20199;-45
2021/10/06 04:09:51;;;;;;;8.53;7.07;;;12.20;99.90;;;;;;5059371;28;20201;-47
2021/10/06 04:12:17;;;;;;;7.13;6.43;;;12.10;99.90;;;;;;5063608;28;20742;-48
2021/10/06 04:14:45;;;;;;;10.57;6.30;;;12.10;99.90;;;;;;5060510;28;20670;-56
2021/10/06 04:17:12;;;;;;;8.47;5.60;;;12.00;99.90;;;;;;5063306;28;20277;-45
2021/10/06 04:19:39;;;;;;;9.43;6.43;;;12.00;99.90;;;;;;5062501;28;20194;-48
2021/10/06 04:22:05;;;;;;;9.33;5.50;;;12.00;99.90;;;;;;5049560;28;20210;-47
2021/10/06 04:24:32;;;;;;;7.20;5.53;;;11.90;99.90;;;;;;5062534;28;20199;-49
2021/10/06 04:26:58;;;;;;;7.80;5.57;;;11.90;99.90;;;;;;5060601;28;20191;-47
2021/10/06 04:29:25;;;;;;;11.50;6.53;;;11.80;99.90;;;;;;5063743;28;20741;-46
2021/10/06 04:31:53;;;;;;;8.47;6.03;;;11.80;99.90;;;;;;5050996;28;20223;-49
2021/10/06 04:34:20;;;;;;;10.53;5.90;;;11.80;99.90;;;;;;5050573;28;20234;-48
2021/10/06 04:36:46;;;;;;;7.63;5.30;;;11.70;99.90;;;;;;5047194;28;20202;-49
2021/10/06 04:39:13;;;;;;;7.73;5.90;;;11.70;99.90;;;;;;5055041;28;20207;-55
2021/10/06 04:41:39;;;;;;;9.67;6.50;;;11.60;99.90;;;;;;5062948;28;20199;-45
2021/10/06 04:44:06;;;;;;;6.23;5.63;;;11.60;99.90;;;;;;5061367;28;20206;-53
2021/10/06 04:46:33;;;;;;;10.07;6.40;;;11.60;99.90;;;;;;5062597;28;20198;-50
2021/10/06 04:49:02;;;;;;;8.37;6.43;;;11.60;99.90;;;;;;5047035;28;20198;-47
2021/10/06 04:51:28;;;;;;;6.53;5.70;;;11.50;99.90;;;;;;5059076;28;20241;-49
2021/10/06 04:53:55;;;;;;;8.97;6.50;;;11.50;99.90;;;;;;5043422;28;20226;-51
2021/10/06 04:56:21;;;;;;;7.07;6.20;;;11.50;99.90;;;;;;5062365;28;20194;-46
2021/10/06 04:58:48;;;;;;;9.97;6.27;;;11.50;99.90;;;;;;5052888;28;20236;-49
2021/10/06 05:01:15;;;;;;;8.77;6.30;;;11.40;99.90;;;;;;5058797;28;20213;-48
2021/10/06 05:03:42;;;;;;;7.37;5.90;;;11.40;99.90;;;;;;5059279;28;20214;-49
2021/10/06 05:06:10;;;;;;;8.43;5.77;;;11.40;99.90;;;;;;5061340;28;20222;-49
2021/10/06 05:08:37;;;;;;;9.23;5.90;;;11.40;99.90;;;;;;5046264;28;20226;-56
2021/10/06 05:11:04;;;;;;;8.40;5.17;;;11.40;99.90;;;;;;5055944;28;20202;-46
2021/10/06 05:13:30;;;;;;;6.10;5.37;;;11.30;99.90;;;;;;5056472;28;20553;-47
2021/10/06 05:15:57;;;;;;;6.17;5.57;;;11.30;99.90;;;;;;5061679;28;20831;-49
2021/10/06 05:18:24;;;;;;;8.07;6.07;;;11.30;99.90;;;;;;5063644;28;20226;-49
2021/10/06 05:20:50;;;;;;;7.67;5.77;;;11.30;99.90;;;;;;5059050;28;20295;-48
2021/10/06 05:23:18;;;;;;;11.13;6.33;;;11.20;99.90;;;;;;5050170;28;20252;-48
2021/10/06 05:25:45;;;;;;;7.00;6.23;;;11.20;99.90;;;;;;5049811;28;20208;-50
2021/10/06 05:28:11;;;;;;;9.67;6.13;;;11.20;99.90;;;;;;5061590;28;20664;-50
2021/10/06 05:30:38;;;;;;;8.30;6.37;;;11.20;99.90;;;;;;5058906;28;20202;-48
2021/10/06 05:33:05;;;;;;;9.97;6.13;;;11.20;99.90;;;;;;5061598;28;20226;-49
2021/10/06 05:35:31;;;;;;;8.67;6.70;;;11.20;99.90;;;;;;5061301;28;20201;-50
2021/10/06 05:37:58;;;;;;;8.63;6.20;;;11.20;99.90;;;;;;5048717;28;20214;-50
2021/10/06 05:40:26;;;;;;;8.77;6.90;;;11.20;99.90;;;;;;5053994;28;20682;-46
2021/10/06 05:42:52;;;;;;;11.87;7.37;;;11.20;99.90;;;;;;5058015;28;20222;-50
2021/10/06 05:45:19;;;;;;;7.43;6.50;;;11.20;99.90;;;;;;5062892;28;20205;-50
2021/10/06 05:47:46;;;;;;;7.77;6.73;;;11.20;99.90;;;;;;5058275;28;20191;-47
2021/10/06 05:50:12;;;;;;;10.57;6.50;;;11.20;99.90;;;;;;5062414;28;20221;-48
2021/10/06 05:52:39;;;;;;;7.50;6.80;;;11.20;99.90;;;;;;5049715;28;20238;-58
2021/10/06 05:55:06;;;;;;;11.67;7.40;;;11.20;99.90;;;;;;5058137;28;20218;-45
2021/10/06 05:57:35;;;;;;;9.83;7.60;;;11.20;99.90;;;;;;5053051;28;20228;-55
2021/10/06 06:00:01;;;;;;;9.17;6.73;;;11.20;99.90;;;;;;5056892;28;20190;-47
2021/10/06 06:02:28;;;;;;;7.33;6.73;;;11.20;99.90;;;;;;5060554;28;20227;-54
2021/10/06 06:04:54;;;;;;;11.20;7.30;;;11.20;99.90;;;;;;5055823;28;20904;-55
2021/10/06 06:07:21;;;;;;;7.80;6.20;;;11.20;99.90;;;;;;5061441;28;20203;-50
2021/10/06 06:09:48;;;;;;;7.77;6.30;;;11.20;99.90;;;;;;5041152;28;20894;-53
2021/10/06 06:12:14;;;;;;;9.97;6.93;;;11.20;99.90;;;;;;5058973;28;20230;-50
2021/10/06 06:14:42;;;;;;;11.03;6.63;;;11.20;99.90;;;;;;5061600;28;20225;-50
2021/10/06 06:17:10;;;;;;;8.70;7.77;;;11.20;99.90;;;;;;5065019;28;20206;-49
2021/10/06 06:19:36;;;;;;;13.30;8.20;;;11.20;99.90;;;;;;5062067;28;20289;-48
2021/10/06 06:22:03;;;;;;;13.30;7.23;;;11.20;99.90;;;;;;5059399;28;20215;-50
2021/10/06 06:24:30;;;;;;;9.20;7.33;;;11.20;99.90;;;;;;5050597;28;20207;-53
2021/10/06 06:26:56;;;;;;;7.60;6.70;;;11.30;99.90;;;;;;5054347;28;20202;-50
2021/10/06 06:29:23;;;;;;;9.90;7.13;;;11.30;99.90;;;;;;5062863;28;20683;-48
2021/10/06 06:31:51;;;;;;;7.63;6.83;;;11.30;99.90;;;;;;5058521;28;20214;-47
2021/10/06 06:34:18;;;;;;;9.30;7.50;;;11.30;99.90;;;;;;5062129;28;20556;-48
2021/10/06 06:36:44;;;;;;;9.43;6.77;;;11.40;99.90;;;;;;5056351;28;20202;-46
2021/10/06 06:39:11;;;;;;;9.20;6.77;;;11.40;99.90;;;;;;5043336;28;20210;-51
2021/10/06 06:41:38;;;;;;;9.90;7.10;;;11.50;99.90;;;;;;5047278;28;20198;-48
2021/10/06 06:44:05;;;;;;;10.17;7.30;;;11.50;99.90;;;;;;5062506;28;20203;-49
2021/10/06 06:46:32;;;;;;;9.37;6.83;;;11.50;99.90;;;;;;5060037;28;20591;-49
2021/10/06 06:49:00;;;;;;;12.93;7.07;;;11.60;99.90;;;;;;5064707;28;20202;-52
2021/10/06 06:51:26;;;;;;;8.47;6.37;;;11.60;99.90;;;;;;5058279;28;20207;-47
2021/10/06 06:53:53;;;;;;;9.03;6.10;;;11.60;99.90;;;;;;5064544;28;20221;-48
2021/10/06 06:56:20;;;;;;;7.63;6.03;;;11.70;99.90;;;;;;5043908;28;20207;-49
2021/10/06 06:58:47;;;;;;;6.63;5.93;;;11.80;99.90;;;;;;5063544;28;20694;-48
2021/10/06 07:01:14;;;;;;;7.00;5.60;;;11.80;99.90;;;;;;5059928;28;20199;-55
2021/10/06 07:03:40;;;;;;;5.80;5.23;;;11.90;99.90;;;;;;5058209;28;20211;-45
2021/10/06 07:06:09;;;;;;;7.30;6.27;;;11.90;99.90;;;;;;5060707;28;20206;-53
2021/10/06 07:08:35;;;;;;;5.80;5.13;;;12.00;99.90;;;;;;5060148;28;20902;-48
2021/10/06 07:11:02;;;;;;;7.43;5.57;;;12.00;99.90;;;;;;5051347;28;20211;-54
2021/10/06 07:13:29;;;;;;;7.27;5.83;;;12.10;99.90;;;;;;5055751;28;20234;-49
2021/10/06 07:15:56;;;;;;;9.20;5.83;;;12.10;99.90;;;;;;5062503;28;20213;-46
2021/10/06 07:18:22;;;;;;;7.30;4.83;;;12.20;99.90;;;;;;5054409;28;20199;-47
2021/10/06 07:20:49;;;;;;;6.20;4.63;;;12.30;99.90;;;;;;5063116;28;20213;-50
2021/10/06 07:23:17;;;;;;;4.97;4.47;;;12.40;99.90;;;;;;5060090;28;20222;-50
2021/10/06 07:25:44;;;;;;;6.97;4.70;;;12.50;99.90;;;;;;5063967;28;20206;-48
2021/10/06 07:28:11;;;;;;;7.10;4.30;;;12.50;99.90;;;;;;5045588;28;20214;-52
2021/10/06 07:30:38;;;;;;;7.70;4.50;;;12.40;99.90;;;;;;5061864;28;20206;-47
2021/10/06 07:33:04;;;;;;;5.77;4.13;;;12.50;99.90;;;;;;5062047;28;20222;-57
2021/10/06 07:35:32;;;;;;;6.57;4.47;;;12.50;99.90;;;;;;5056612;28;20218;-47
2021/10/06 07:37:58;;;;;;;4.57;4.10;;;12.50;99.90;;;;;;5064031;28;20210;-46
2021/10/06 07:40:26;;;;;;;7.27;3.93;;;12.50;99.90;;;;;;5059621;28;20787;-52
2021/10/06 07:42:53;;;;;;;7.17;3.77;;;12.60;99.90;;;;;;5050880;28;20214;-49
2021/10/06 07:45:20;;;;;;;4.80;3.83;;;12.60;99.90;;;;;;5054372;28;20335;-56
2021/10/06 07:47:47;;;;;;;6.23;4.27;;;12.70;99.90;;;;;;5063356;28;20797;-45
2021/10/06 07:50:13;;;;;;;9.43;4.10;;;12.80;99.90;;;;;;5056740;28;20206;-55
2021/10/06 07:52:40;;;;;;;6.63;3.80;;;12.90;99.90;;;;;;5061124;28;20210;-46
2021/10/06 07:55:08;;;;;;;4.87;3.87;;;12.90;99.90;;;;;;5060792;28;20218;-51
2021/10/06 07:57:36;;;;;;;7.33;3.67;;;13.00;99.90;;;;;;5048619;28;20210;-46
2021/10/06 08:00:08;;;;;;;6.67;3.60;;;13.00;99.90;;;;;;5059074;28;20302;-50
2021/10/06 08:02:38;;;;;;;6.87;3.67;;;13.10;99.90;;;;;;5059353;28;20229;-47
2021/10/06 08:05:05;;;;;;;5.10;3.77;;;13.10;99.90;;;;;;5057868;28;20210;-48
2021/10/06 08:07:32;;;;;;;7.90;2.90;;;13.10;99.90;;;;;;5059521;28;20202;-52
2021/10/06 08:09:58;;;;;;;3.53;3.10;;;13.20;99.90;;;;;;5061995;28;20203;-52
2021/10/06 08:12:25;;;;;;;5.93;3.43;;;13.20;99.90;;;;;;5045194;28;21101;-56
2021/10/06 08:14:53;;;;;;;6.90;2.83;;;13.30;99.90;;;;;;5058936;28;20223;-47
2021/10/06 08:17:20;;;;;;;4.33;3.00;;;13.40;99.90;;;;;;5059313;28;20195;-57
2021/10/06 08:19:47;;;;;;;6.53;3.37;;;13.40;99.90;;;;;;5058424;28;20202;-52
2021/10/06 08:22:14;;;;;;;6.23;2.70;;;13.50;99.90;;;;;;5059331;28;20253;-51
2021/10/06 08:24:41;;;;;;;5.93;2.90;;;13.50;99.90;;;;;;5062417;28;20199;-51
2021/10/06 08:27:11;;;;;;;7.50;2.90;;;13.60;99.90;;;;;;5061386;28;20213;-49
2021/10/06 08:29:37;;;;;;;5.63;2.87;;;13.70;99.90;;;;;;5044474;28;20233;-46
2021/10/06 08:32:06;;;;;;;6.73;3.07;;;13.70;99.90;;;;;;5057856;28;20223;-58
2021/10/06 08:34:33;;;;;;;4.30;3.10;;;13.80;99.90;;;;;;5059725;28;20226;-47
2021/10/06 08:36:59;;;;;;;7.63;2.90;;;13.80;99.90;;;;;;5058883;28;20210;-46
2021/10/06 08:39:26;;;;;;;3.90;3.40;;;13.90;99.90;;;;;;5059023;28;20201;-46
2021/10/06 08:41:53;;;;;;;5.03;2.70;;;13.90;99.90;;;;;;5060085;28;20221;-48
2021/10/06 08:44:22;;;;;;;4.77;3.07;;;13.90;99.90;;;;;;5046051;28;20207;-49
2021/10/06 08:46:49;;;;;;;4.00;2.50;;;13.90;99.90;;;;;;5058431;28;20212;-46
2021/10/06 08:49:17;;;;;;;3.53;3.23;;;13.90;99.90;;;;;;5058395;28;20552;-51
2021/10/06 08:51:44;;;;;;;5.17;2.80;;;13.80;99.90;;;;;;5057117;28;20195;-47
2021/10/06 08:54:10;;;;;;;4.63;3.40;;;13.80;99.90;;;;;;5060303;28;20222;-47
2021/10/06 08:56:37;;;;;;;5.70;2.67;;;13.80;99.90;;;;;;5062132;28;20195;-51
2021/10/06 08:59:04;;;;;;;5.80;2.13;;;13.90;99.90;;;;;;5049807;28;20206;-50
2021/10/06 09:01:31;;;;;;;4.07;3.00;;;13.90;99.90;;;;;;5055147;28;20323;-50
2021/10/06 09:04:00;;;;;;;5.13;3.23;;;13.90;99.90;;;;;;5062256;28;20750;-52
2021/10/06 09:06:36;;;;;;;5.40;3.37;;;14.00;99.90;;;;;;5058407;28;20190;-55
2021/10/06 09:09:16;;;;;;;4.30;2.47;;;14.10;99.90;;;;;;5056734;28;20205;-49
2021/10/06 09:11:46;;;;;;;4.50;3.00;;;14.10;99.90;;;;;;5062238;28;20195;-53
2021/10/06 09:14:12;;;;;;;5.90;3.43;;;14.10;99.90;;;;;;5036576;28;20209;-51
2021/10/06 09:16:40;;;;;;;6.47;2.63;;;14.10;99.90;;;;;;5057060;28;20210;-53
2021/10/06 09:19:07;;;;;;;2.40;2.17;;;14.10;99.90;;;;;;5050019;28;20271;-48
2021/10/06 09:21:52;;;;;;;4.30;2.23;;;14.10;99.90;;;;;;5057900;28;20233;-55
2021/10/06 09:24:18;;;;;;;5.53;2.70;;;14.10;99.90;;;;;;5056074;28;20202;-47
2021/10/06 09:26:45;;;;;;;3.73;2.07;;;14.00;99.90;;;;;;5055938;28;20644;-52
2021/10/06 09:29:20;;;;;;;4.33;2.33;;;14.00;99.90;;;;;;5044884;28;20225;-51
2021/10/06 09:31:47;;;;;;;4.83;2.83;;;14.00;99.90;;;;;;5051679;28;20264;-48
2021/10/06 09:34:14;;;;;;;4.50;2.10;;;14.00;99.90;;;;;;5057788;28;20567;-53
2021/10/06 09:36:42;;;;;;;2.30;2.10;;;14.00;99.90;;;;;;5053170;28;20202;-50
2021/10/06 09:39:10;;;;;;;3.53;2.10;;;14.10;99.90;;;;;;5056276;28;20206;-48
2021/10/06 09:41:38;;;;;;;3.40;1.90;;;14.10;99.90;;;;;;5058422;28;20206;-49
2021/10/06 09:44:09;;;;;;;3.80;1.60;;;14.10;99.90;;;;;;5045925;28;20222;-55
2021/10/06 09:46:46;;;;;;;3.37;1.80;;;14.10;99.90;;;;;;5064789;28;20217;-46
2021/10/06 09:49:21;;;;;;;3.50;1.90;;;14.20;99.90;;;;;;5058996;28;20195;-50
2021/10/06 09:51:49;;;;;;;4.30;2.00;;;14.50;99.90;;;;;;5057340;28;20226;-49
2021/10/06 09:54:16;;;;;;;2.67;1.97;;;14.60;99.90;;;;;;5060822;28;20213;-46
2021/10/06 09:56:44;;;;;;;2.80;1.67;;;14.70;99.90;;;;;;5061542;28;20206;-50
2021/10/06 09:59:12;;;;;;;3.03;1.40;;;14.70;99.90;;;;;;5051208;28;20206;-51
2021/10/06 10:01:40;;;;;;;2.53;1.60;;;14.80;99.90;;;;;;5061018;28;20229;-53
2021/10/06 10:04:08;;;;;;;2.63;1.60;;;14.80;99.90;;;;;;5056227;28;20206;-51
2021/10/06 10:06:35;;;;;;;2.27;1.80;;;14.90;99.90;;;;;;5058060;28;20199;-48
2021/10/06 10:09:06;;;;;;;6.43;1.57;;;14.90;99.90;;;;;;5058444;28;20345;-50
2021/10/06 10:11:35;;;;;;;4.23;1.67;;;15.00;99.90;;;;;;5063715;28;20227;-50
2021/10/06 10:14:03;;;;;;;2.73;0.97;;;15.20;99.90;;;;;;5049747;28;20545;-50
2021/10/06 10:16:30;;;;;;;2.53;1.30;;;15.30;99.90;;;;;;5062195;28;20218;-55
2021/10/06 10:19:03;;;;;;;3.97;2.47;;;15.20;99.90;;;;;;5064824;28;20194;-54
2021/10/06 10:21:31;;;;;;;4.50;1.10;;;15.20;99.90;;;;;;5049477;28;20206;-49
2021/10/06 10:24:07;;;;;;;4.60;2.63;;;15.20;99.90;;;;;;5066038;28;20202;-54
2021/10/06 10:26:34;;;;;;;3.23;1.53;;;15.10;99.90;;;;;;5057445;28;20203;-50
2021/10/06 10:29:00;;;;;;;2.20;1.80;;;14.90;99.90;;;;;;5065451;28;20205;-46
2021/10/06 10:31:28;;;;;;;2.33;1.37;;;14.90;99.90;;;;;;5045287;28;20225;-48
2021/10/06 10:33:56;;;;;;;2.97;1.20;;;14.90;99.90;;;;;;5063085;28;20256;-45
2021/10/06 10:36:48;;;;;;;2.03;0.97;;;14.90;99.90;;;;;;5057997;28;20240;-53
2021/10/06 10:39:58;;;;;;;4.80;2.47;;;14.80;99.90;;;;;;5056984;28;20252;-49
2021/10/06 10:43:00;;;;;;;3.83;1.70;;;14.80;99.90;;;;;;5054718;28;20219;-48
2021/10/06 10:45:40;;;;;;;4.47;1.77;;;14.80;99.90;;;;;;5050174;28;20199;-47
2021/10/06 10:48:09;;;;;;;2.70;1.50;;;14.70;99.90;;;;;;5055056;28;20214;-51
2021/10/06 10:51:12;;;;;;;3.17;1.73;;;14.60;99.90;;;;;;5061875;28;20202;-50
2021/10/06 10:54:00;;;;;;;1.10;1.00;;;14.60;99.90;;;;;;5060505;28;20593;-50
2021/10/06 10:56:42;;;;;;;3.13;1.40;;;14.50;99.90;;;;;;5056342;28;20246;-46
2021/10/06 10:59:11;;;;;;;2.57;1.20;;;14.50;99.90;;;;;;5055750;28;20207;-52
2021/10/06 11:01:47;;;;;;;2.40;1.70;;;14.50;99.90;;;;;;5031794;28;20925;-48
2021/10/06 11:04:17;;;;;;;3.43;1.50;;;14.60;99.90;;;;;;5052998;28;20202;-49
2021/10/06 11:06:47;;;;;;;2.20;1.77;;;14.60;99.90;;;;;;5060131;28;20549;-53
2021/10/06 11:09:45;;;;;;;2.73;1.20;;;14.60;99.90;;;;;;5055343;28;20201;-51
2021/10/06 11:12:40;;;;;;;2.47;1.40;;;14.60;99.90;;;;;;4968693;28;20304;-50
2021/10/06 11:15:30;;;;;;;3.93;1.57;;;14.60;99.90;;;;;;5045891;28;20238;-48
2021/10/06 11:18:18;;;;;;;3.17;1.30;;;14.60;99.90;;;;;;5061837;28;20549;-47
2021/10/06 11:20:51;;;;;;;4.97;1.80;;;14.70;99.90;;;;;;5063596;28;20217;-52
2021/10/06 11:23:53;;;;;;;2.40;0.97;;;14.70;99.90;;;;;;5055890;28;20310;-45
2021/10/06 11:26:28;;;;;;;2.33;1.43;;;14.70;99.90;;;;;;5061553;28;20543;-46
2021/10/06 11:28:58;;;;;;;4.47;1.70;;;14.70;99.90;;;;;;5058643;28;20194;-53
2021/10/06 11:31:28;;;;;;;3.00;1.33;;;14.80;99.90;;;;;;5054918;28;23327;-47
2021/10/06 11:33:55;;;;;;;3.27;1.73;;;14.80;99.90;;;;;;5058933;28;20639;-49
2021/10/06 11:36:24;;;;;;;1.57;1.20;;;14.90;99.90;;;;;;5061643;28;20217;-50
2021/10/06 11:38:55;;;;;;;1.23;1.13;;;14.90;99.90;;;;;;5056836;28;20663;-49
2021/10/06 11:41:21;;;;;;;3.47;2.03;;;15.00;99.90;;;;;;5057060;28;20909;-48
2021/10/06 11:43:50;;;;;;;2.13;1.30;;;15.00;99.90;;;;;;5060187;28;20222;-45
2021/10/06 11:46:20;;;;;;;2.00;1.00;;;15.10;99.90;;;;;;5057546;28;20186;-46
2021/10/06 11:48:57;;;;;;;3.37;1.23;;;15.10;99.90;;;;;;5054800;28;20211;-45
2021/10/06 11:51:38;;;;;;;2.53;1.70;;;15.20;99.90;;;;;;5060487;28;20766;-45
2021/10/06 11:54:06;;;;;;;2.70;1.37;;;15.30;99.90;;;;;;5057519;28;20226;-53
2021/10/06 11:56:33;;;;;;;3.83;1.40;;;15.30;99.90;;;;;;5058790;28;20218;-47
2021/10/06 11:59:08;;;;;;;1.83;1.43;;;15.30;99.90;;;;;;5046232;28;20215;-50
2021/10/06 12:01:35;;;;;;;2.10;1.20;;;15.30;99.90;;;;;;5061102;28;20209;-46
2021/10/06 12:04:14;;;;;;;1.77;1.40;;;15.30;99.90;;;;;;5044761;28;20207;-46
2021/10/06 12:06:42;;;;;;;2.63;1.10;;;15.30;99.90;;;;;;5061808;28;20198;-48
2021/10/06 12:09:10;;;;;;;2.20;1.07;;;15.20;99.90;;;;;;5055802;28;20926;-47
2021/10/06 12:11:39;;;;;;;4.23;1.03;;;15.20;99.90;;;;;;5053207;28;20744;-46
2021/10/06 12:14:23;;;;;;;3.07;1.27;;;15.10;99.90;;;;;;5052805;28;20229;-48
2021/10/06 12:17:01;;;;;;;3.70;1.30;;;15.10;99.90;;;;;;5051243;28;20706;-48
2021/10/06 12:19:29;;;;;;;1.47;1.23;;;15.10;99.90;;;;;;5052289;28;20570;-47
2021/10/06 12:21:56;;;;;;;1.63;1.23;;;15.10;99.90;;;;;;5057676;28;20230;-53
2021/10/06 12:24:25;;;;;;;1.07;1.00;;;15.10;99.90;;;;;;5057666;28;20193;-47
2021/10/06 12:26:53;;;;;;;2.17;1.13;;;15.10;99.90;;;;;;5048259;28;20701;-46
2021/10/06 12:29:21;;;;;;;1.47;1.10;;;15.10;99.90;;;;;;5060121;28;20210;-47
2021/10/06 12:31:49;;;;;;;3.87;1.20;;;15.10;99.90;;;;;;5055119;28;20647;-49
2021/10/06 12:34:20;;;;;;;1.30;1.20;;;15.10;99.90;;;;;;5047392;28;20218;-47
2021/10/06 12:36:51;;;;;;;5.43;1.20;;;15.10;99.90;;;;;;5053913;28;20733;-50
2021/10/06 12:39:19;;;;;;;1.77;0.97;;;15.20;99.90;;;;;;5058128;28;20814;-49
2021/10/06 12:41:52;;;;;;;1.53;0.90;;;15.20;99.90;;;;;;5057256;28;20241;-51
2021/10/06 12:44:32;;;;;;;4.20;1.63;;;15.20;99.90;;;;;;5060403;28;20198;-47
2021/10/06 12:47:00;;;;;;;3.30;1.20;;;15.20;99.90;;;;;;5053504;28;20285;-50
2021/10/06 12:49:29;;;;;;;1.70;0.97;;;15.10;99.90;;;;;;5050642;28;20602;-50
2021/10/06 12:52:00;;;;;;;4.57;1.23;;;15.10;99.90;;;;;;5058782;28;20229;-50
2021/10/06 12:54:30;;;;;;;2.70;1.20;;;15.10;99.90;;;;;;5045805;28;20199;-50